sensor_id;sensor_type;location;lat;lon;timestamp;temperature;humidity
3190;DHT22;1606;51.946;10.558;2023-08-24T00:00:26;21.50;99.90
3190;DHT22;1606;51.946;10.558;2023-08-24T00:02:54;21.40;99.90
3190;DHT22;1606;51.946;10.558;2023-08-24T00:05:22;21.30;99.90
3190;DHT22;1606;51.946;10.558;2023-08-24T00:07:52;21.20;99.90
3190;DHT22;1606;51.946;10.558;2023-08-24T00:10:19;21.20;99.90
3190;DHT22;1606;51.946;10.558;2023-08-24T00:12:47;21.30;99.90
3190;DHT22;1606;51.946;10.558;2023-08-24T00:15:15;21.10;99.90
3190;DHT22;1606;51.946;10.558;2023-08-24T00:17:43;21.00;99.90
3190;DHT22;1606;51.946;10.558;2023-08-24T00:20:11;21.00;99.90
3190;DHT22;1606;51.946;10.558;2023-08-24T00:22:40;21.00;99.90
3190;DHT22;1606;51.946;10.558;2023-08-24T00:25:09;21.10;99.90
3190;DHT22;1606;51.946;10.558;2023-08-24T00:27:38;21.00;99.90
3190;DHT22;1606;51.946;10.558;2023-08-24T00:30:07;21.10;99.90
3190;DHT22;1606;51.946;10.558;2023-08-24T00:32:36;21.20;99.90
3190;DHT22;1606;51.946;10.558;2023-08-24T00:35:05;21.20;99.90
3190;DHT22;1606;51.946;10.558;2023-08-24T00:37:34;21.20;99.90
3190;DHT22;1606;51.946;10.558;2023-08-24T00:40:03;21.20;99.90
3190;DHT22;1606;51.946;10.558;2023-08-24T00:42:38;21.20;99.90
3190;DHT22;1606;51.946;10.558;2023-08-24T00:45:07;21.30;99.90
3190;DHT22;1606;51.946;10.558;2023-08-24T00:47:36;21.20;99.90
3190;DHT22;1606;51.946;10.558;2023-08-24T00:50:06;21.00;99.90
3190;DHT22;1606;51.946;10.558;2023-08-24T00:52:36;20.90;99.90
3190;DHT22;1606;51.946;10.558;2023-08-24T00:55:06;20.90;99.90
3190;DHT22;1606;51.946;10.558;2023-08-24T00:57:35;20.90;99.90
3190;DHT22;1606;51.946;10.558;2023-08-24T01:00:06;20.80;99.90
3190;DHT22;1606;51.946;10.558;2023-08-24T01:02:37;20.80;99.90
3190;DHT22;1606;51.946;10.558;2023-08-24T01:05:05;20.80;99.90
3190;DHT22;1606;51.946;10.558;2023-08-24T01:07:34;20.80;99.90
3190;DHT22;1606;51.946;10.558;2023-08-24T01:10:03;20.80;99.90
3190;DHT22;1606;51.946;10.558;2023-08-24T01:12:41;20.80;99.90
3190;DHT22;1606;51.946;10.558;2023-08-24T01:15:14;20.80;99.90
3190;DHT22;1606;51.946;10.558;2023-08-24T01:17:46;20.90;99.90
3190;DHT22;1606;51.946;10.558;2023-08-24T01:20:17;20.90;99.90
3190;DHT22;1606;51.946;10.558;2023-08-24T01:22:53;20.80;99.90
3190;DHT22;1606;51.946;10.558;2023-08-24T01:25:28;20.90;99.90
3190;DHT22;1606;51.946;10.558;2023-08-24T01:28:02;20.80;99.90
3190;DHT22;1606;51.946;10.558;2023-08-24T01:30:32;20.80;99.90
3190;DHT22;1606;51.946;10.558;2023-08-24T01:33:02;20.80;99.90
3190;DHT22;1606;51.946;10.558;2023-08-24T01:35:31;20.70;99.90
3190;DHT22;1606;51.946;10.558;2023-08-24T01:37:59;20.70;99.90
3190;DHT22;1606;51.946;10.558;2023-08-24T01:40:39;20.80;99.90
3190;DHT22;1606;51.946;10.558;2023-08-24T01:43:13;20.80;99.90
3190;DHT22;1606;51.946;10.558;2023-08-24T01:45:49;20.80;99.90
3190;DHT22;1606;51.946;10.558;2023-08-24T01:48:17;20.90;99.90
3190;DHT22;1606;51.946;10.558;2023-08-24T01:50:46;20.80;99.90
3190;DHT22;1606;51.946;10.558;2023-08-24T01:53:14;20.90;99.90
3190;DHT22;1606;51.946;10.558;2023-08-24T01:55:44;20.80;99.90
3190;DHT22;1606;51.946;10.558;2023-08-24T01:58:14;20.80;99.90
3190;DHT22;1606;51.946;10.558;2023-08-24T02:00:42;20.70;99.90
3190;DHT22;1606;51.946;10.558;2023-08-24T02:03:10;20.80;99.90
3190;DHT22;1606;51.946;10.558;2023-08-24T02:05:38;20.70;99.90
3190;DHT22;1606;51.946;10.558;2023-08-24T02:08:06;20.70;99.90
3190;DHT22;1606;51.946;10.558;2023-08-24T02:10:34;20.60;99.90
3190;DHT22;1606;51.946;10.558;2023-08-24T02:13:02;20.70;99.90
3190;DHT22;1606;51.946;10.558;2023-08-24T02:15:31;20.70;99.90
3190;DHT22;1606;51.946;10.558;2023-08-24T02:17:59;20.70;99.90
3190;DHT22;1606;51.946;10.558;2023-08-24T02:20:27;20.70;99.90
3190;DHT22;1606;51.946;10.558;2023-08-24T02:22:55;20.70;99.90
3190;DHT22;1606;51.946;10.558;2023-08-24T02:25:23;20.60;99.90
3190;DHT22;1606;51.946;10.558;2023-08-24T02:27:51;20.60;99.90
3190;DHT22;1606;51.946;10.558;2023-08-24T02:30:19;20.50;99.90
3190;DHT22;1606;51.946;10.558;2023-08-24T02:32:49;20.40;99.90
3190;DHT22;1606;51.946;10.558;2023-08-24T02:35:17;20.50;99.90
3190;DHT22;1606;51.946;10.558;2023-08-24T02:37:45;20.50;99.90
3190;DHT22;1606;51.946;10.558;2023-08-24T02:40:14;20.50;99.90
3190;DHT22;1606;51.946;10.558;2023-08-24T02:42:42;20.50;99.90
3190;DHT22;1606;51.946;10.558;2023-08-24T02:45:10;20.50;99.90
3190;DHT22;1606;51.946;10.558;2023-08-24T02:47:38;20.60;99.90
3190;DHT22;1606;51.946;10.558;2023-08-24T02:50:08;20.60;99.90
3190;DHT22;1606;51.946;10.558;2023-08-24T02:52:36;20.60;99.90
3190;DHT22;1606;51.946;10.558;2023-08-24T02:55:05;20.60;99.90
3190;DHT22;1606;51.946;10.558;2023-08-24T02:57:34;20.50;99.90
3190;DHT22;1606;51.946;10.558;2023-08-24T03:00:03;20.50;99.90
3190;DHT22;1606;51.946;10.558;2023-08-24T03:02:33;20.50;99.90
3190;DHT22;1606;51.946;10.558;2023-08-24T03:05:01;20.40;99.90
3190;DHT22;1606;51.946;10.558;2023-08-24T03:07:31;20.40;99.90
3190;DHT22;1606;51.946;10.558;2023-08-24T03:09:58;20.30;99.90
3190;DHT22;1606;51.946;10.558;2023-08-24T03:12:26;20.30;99.90
3190;DHT22;1606;51.946;10.558;2023-08-24T03:14:54;20.30;99.90
3190;DHT22;1606;51.946;10.558;2023-08-24T03:17:23;20.30;99.90
3190;DHT22;1606;51.946;10.558;2023-08-24T03:19:51;20.40;99.90
3190;DHT22;1606;51.946;10.558;2023-08-24T03:22:19;20.40;99.90
3190;DHT22;1606;51.946;10.558;2023-08-24T03:24:48;20.40;99.90
3190;DHT22;1606;51.946;10.558;2023-08-24T03:27:16;20.40;99.90
3190;DHT22;1606;51.946;10.558;2023-08-24T03:29:44;20.40;99.90
3190;DHT22;1606;51.946;10.558;2023-08-24T03:32:11;20.40;99.90
3190;DHT22;1606;51.946;10.558;2023-08-24T03:34:39;20.40;99.90
3190;DHT22;1606;51.946;10.558;2023-08-24T03:37:07;20.30;99.90
3190;DHT22;1606;51.946;10.558;2023-08-24T03:39:36;20.30;99.90
3190;DHT22;1606;51.946;10.558;2023-08-24T03:42:06;20.20;99.90
3190;DHT22;1606;51.946;10.558;2023-08-24T03:44:34;20.10;99.90
3190;DHT22;1606;51.946;10.558;2023-08-24T03:47:03;20.10;99.90
3190;DHT22;1606;51.946;10.558;2023-08-24T03:49:31;20.10;99.90
3190;DHT22;1606;51.946;10.558;2023-08-24T03:51:58;20.00;99.90
3190;DHT22;1606;51.946;10.558;2023-08-24T03:54:26;20.00;99.90
3190;DHT22;1606;51.946;10.558;2023-08-24T03:56:54;20.10;99.90
3190;DHT22;1606;51.946;10.558;2023-08-24T03:59:24;20.10;99.90
3190;DHT22;1606;51.946;10.558;2023-08-24T04:01:51;20.10;99.90
3190;DHT22;1606;51.946;10.558;2023-08-24T04:04:19;20.00;99.90
3190;DHT22;1606;51.946;10.558;2023-08-24T04:06:47;20.00;99.90
3190;DHT22;1606;51.946;10.558;2023-08-24T04:09:16;20.00;99.90
3190;DHT22;1606;51.946;10.558;2023-08-24T04:11:44;20.00;99.90
3190;DHT22;1606;51.946;10.558;2023-08-24T04:14:12;20.00;99.90
3190;DHT22;1606;51.946;10.558;2023-08-24T04:16:41;20.00;99.90
3190;DHT22;1606;51.946;10.558;2023-08-24T04:19:09;19.90;99.90
3190;DHT22;1606;51.946;10.558;2023-08-24T04:21:37;19.90;99.90
3190;DHT22;1606;51.946;10.558;2023-08-24T04:24:05;19.90;99.90
3190;DHT22;1606;51.946;10.558;2023-08-24T04:26:33;19.90;99.90
3190;DHT22;1606;51.946;10.558;2023-08-24T04:29:01;20.00;99.90
3190;DHT22;1606;51.946;10.558;2023-08-24T04:31:29;20.00;99.90
3190;DHT22;1606;51.946;10.558;2023-08-24T04:33:58;19.90;99.90
3190;DHT22;1606;51.946;10.558;2023-08-24T04:36:26;19.90;99.90
3190;DHT22;1606;51.946;10.558;2023-08-24T04:38:54;19.80;99.90
3190;DHT22;1606;51.946;10.558;2023-08-24T04:41:22;19.80;99.90
3190;DHT22;1606;51.946;10.558;2023-08-24T04:43:50;19.70;99.90
3190;DHT22;1606;51.946;10.558;2023-08-24T04:46:18;19.80;99.90
3190;DHT22;1606;51.946;10.558;2023-08-24T04:48:45;19.70;99.90
3190;DHT22;1606;51.946;10.558;2023-08-24T04:51:15;19.70;99.90
3190;DHT22;1606;51.946;10.558;2023-08-24T04:53:43;19.70;99.90
3190;DHT22;1606;51.946;10.558;2023-08-24T04:56:11;19.60;99.90
3190;DHT22;1606;51.946;10.558;2023-08-24T04:58:39;19.70;99.90
3190;DHT22;1606;51.946;10.558;2023-08-24T05:01:07;19.80;99.90
3190;DHT22;1606;51.946;10.558;2023-08-24T05:03:35;19.80;99.90
3190;DHT22;1606;51.946;10.558;2023-08-24T05:06:03;19.80;99.90
3190;DHT22;1606;51.946;10.558;2023-08-24T05:08:32;19.90;99.90
3190;DHT22;1606;51.946;10.558;2023-08-24T05:11:00;19.80;99.90
3190;DHT22;1606;51.946;10.558;2023-08-24T05:13:29;19.80;99.90
3190;DHT22;1606;51.946;10.558;2023-08-24T05:15:57;19.80;99.90
3190;DHT22;1606;51.946;10.558;2023-08-24T05:18:25;19.80;99.90
3190;DHT22;1606;51.946;10.558;2023-08-24T05:20:53;19.80;99.90
3190;DHT22;1606;51.946;10.558;2023-08-24T05:23:21;19.80;99.90
3190;DHT22;1606;51.946;10.558;2023-08-24T05:25:50;19.80;99.90
3190;DHT22;1606;51.946;10.558;2023-08-24T05:28:18;19.90;99.90
3190;DHT22;1606;51.946;10.558;2023-08-24T05:30:46;20.00;99.90
3190;DHT22;1606;51.946;10.558;2023-08-24T05:33:14;19.90;99.90
3190;DHT22;1606;51.946;10.558;2023-08-24T05:35:42;20.00;99.90
3190;DHT22;1606;51.946;10.558;2023-08-24T05:38:10;20.10;99.90
3190;DHT22;1606;51.946;10.558;2023-08-24T05:40:38;20.00;99.90
3190;DHT22;1606;51.946;10.558;2023-08-24T05:43:07;20.00;99.90
3190;DHT22;1606;51.946;10.558;2023-08-24T05:45:36;20.10;99.90
3190;DHT22;1606;51.946;10.558;2023-08-24T05:48:06;20.20;99.90
3190;DHT22;1606;51.946;10.558;2023-08-24T05:50:34;20.20;99.90
3190;DHT22;1606;51.946;10.558;2023-08-24T05:53:04;20.30;99.90
3190;DHT22;1606;51.946;10.558;2023-08-24T05:55:32;20.40;99.90
3190;DHT22;1606;51.946;10.558;2023-08-24T05:58:00;20.60;99.90
3190;DHT22;1606;51.946;10.558;2023-08-24T06:00:29;20.70;99.90
3190;DHT22;1606;51.946;10.558;2023-08-24T06:02:57;20.70;99.90
3190;DHT22;1606;51.946;10.558;2023-08-24T06:05:25;20.80;99.90
3190;DHT22;1606;51.946;10.558;2023-08-24T06:07:53;20.90;99.90
3190;DHT22;1606;51.946;10.558;2023-08-24T06:10:21;20.90;99.90
3190;DHT22;1606;51.946;10.558;2023-08-24T06:12:49;21.10;99.90
3190;DHT22;1606;51.946;10.558;2023-08-24T06:15:17;21.10;99.90
3190;DHT22;1606;51.946;10.558;2023-08-24T06:17:47;21.20;99.90
3190;DHT22;1606;51.946;10.558;2023-08-24T06:20:17;21.30;99.90
3190;DHT22;1606;51.946;10.558;2023-08-24T06:22:45;21.30;99.90
3190;DHT22;1606;51.946;10.558;2023-08-24T06:25:13;21.50;99.90
3190;DHT22;1606;51.946;10.558;2023-08-24T06:27:41;21.60;99.90
3190;DHT22;1606;51.946;10.558;2023-08-24T06:30:09;21.70;99.90
3190;DHT22;1606;51.946;10.558;2023-08-24T06:32:38;21.90;99.90
3190;DHT22;1606;51.946;10.558;2023-08-24T06:35:08;22.10;99.90
3190;DHT22;1606;51.946;10.558;2023-08-24T06:37:36;22.20;99.90
3190;DHT22;1606;51.946;10.558;2023-08-24T06:40:04;22.30;99.90
3190;DHT22;1606;51.946;10.558;2023-08-24T06:42:32;22.40;99.90
3190;DHT22;1606;51.946;10.558;2023-08-24T06:45:00;22.50;99.90
3190;DHT22;1606;51.946;10.558;2023-08-24T06:47:28;22.50;99.90
3190;DHT22;1606;51.946;10.558;2023-08-24T06:49:56;22.50;99.90
3190;DHT22;1606;51.946;10.558;2023-08-24T06:52:25;22.60;99.90
3190;DHT22;1606;51.946;10.558;2023-08-24T06:54:53;22.70;99.90
3190;DHT22;1606;51.946;10.558;2023-08-24T06:57:22;22.80;99.90
3190;DHT22;1606;51.946;10.558;2023-08-24T06:59:51;22.90;99.90
3190;DHT22;1606;51.946;10.558;2023-08-24T07:02:19;23.00;99.90
3190;DHT22;1606;51.946;10.558;2023-08-24T07:04:47;23.00;99.90
3190;DHT22;1606;51.946;10.558;2023-08-24T07:07:14;23.20;99.90
3190;DHT22;1606;51.946;10.558;2023-08-24T07:09:44;23.20;99.90
3190;DHT22;1606;51.946;10.558;2023-08-24T07:12:12;23.10;99.90
3190;DHT22;1606;51.946;10.558;2023-08-24T07:14:39;23.10;99.90
3190;DHT22;1606;51.946;10.558;2023-08-24T07:17:07;23.00;99.90
3190;DHT22;1606;51.946;10.558;2023-08-24T07:19:36;23.10;99.90
3190;DHT22;1606;51.946;10.558;2023-08-24T07:22:04;23.10;99.90
3190;DHT22;1606;51.946;10.558;2023-08-24T07:24:32;23.10;99.90
3190;DHT22;1606;51.946;10.558;2023-08-24T07:27:13;23.10;99.90
3190;DHT22;1606;51.946;10.558;2023-08-24T07:29:41;22.80;99.90
3190;DHT22;1606;51.946;10.558;2023-08-24T07:32:08;22.70;99.90
3190;DHT22;1606;51.946;10.558;2023-08-24T07:34:36;22.70;99.90
3190;DHT22;1606;51.946;10.558;2023-08-24T07:37:04;22.80;99.90
3190;DHT22;1606;51.946;10.558;2023-08-24T07:39:32;23.00;99.90
3190;DHT22;1606;51.946;10.558;2023-08-24T07:42:00;23.10;99.90
3190;DHT22;1606;51.946;10.558;2023-08-24T07:44:29;23.10;99.90
3190;DHT22;1606;51.946;10.558;2023-08-24T07:46:57;23.10;99.90
3190;DHT22;1606;51.946;10.558;2023-08-24T07:49:25;23.20;99.90
3190;DHT22;1606;51.946;10.558;2023-08-24T07:51:53;23.20;99.90
3190;DHT22;1606;51.946;10.558;2023-08-24T07:54:22;23.30;99.90
3190;DHT22;1606;51.946;10.558;2023-08-24T07:56:50;23.30;99.90
3190;DHT22;1606;51.946;10.558;2023-08-24T07:59:17;23.20;99.90
3190;DHT22;1606;51.946;10.558;2023-08-24T08:01:47;23.10;99.90
3190;DHT22;1606;51.946;10.558;2023-08-24T08:04:15;23.10;99.90
3190;DHT22;1606;51.946;10.558;2023-08-24T08:06:42;23.00;99.90
3190;DHT22;1606;51.946;10.558;2023-08-24T08:09:10;22.90;99.90
3190;DHT22;1606;51.946;10.558;2023-08-24T08:11:39;23.00;99.90
3190;DHT22;1606;51.946;10.558;2023-08-24T08:14:07;23.00;99.90
3190;DHT22;1606;51.946;10.558;2023-08-24T08:16:35;23.20;99.90
3190;DHT22;1606;51.946;10.558;2023-08-24T08:19:04;23.40;99.90
3190;DHT22;1606;51.946;10.558;2023-08-24T08:21:33;23.40;99.90
3190;DHT22;1606;51.946;10.558;2023-08-24T08:24:01;23.40;99.90
3190;DHT22;1606;51.946;10.558;2023-08-24T08:26:29;23.40;99.90
3190;DHT22;1606;51.946;10.558;2023-08-24T08:28:57;23.50;99.90
3190;DHT22;1606;51.946;10.558;2023-08-24T08:31:25;23.40;99.90
3190;DHT22;1606;51.946;10.558;2023-08-24T08:33:53;23.40;99.90
3190;DHT22;1606;51.946;10.558;2023-08-24T08:36:25;23.40;99.90
3190;DHT22;1606;51.946;10.558;2023-08-24T08:38:53;23.40;99.90
3190;DHT22;1606;51.946;10.558;2023-08-24T08:41:22;23.50;99.90
3190;DHT22;1606;51.946;10.558;2023-08-24T08:43:53;23.90;99.90
3190;DHT22;1606;51.946;10.558;2023-08-24T08:46:22;24.10;99.90
3190;DHT22;1606;51.946;10.558;2023-08-24T08:48:51;24.00;99.90
3190;DHT22;1606;51.946;10.558;2023-08-24T08:51:20;24.10;99.90
3190;DHT22;1606;51.946;10.558;2023-08-24T08:53:49;24.30;99.90
3190;DHT22;1606;51.946;10.558;2023-08-24T08:56:17;24.50;99.90
3190;DHT22;1606;51.946;10.558;2023-08-24T08:58:45;24.50;99.90
3190;DHT22;1606;51.946;10.558;2023-08-24T09:01:14;24.70;99.90
3190;DHT22;1606;51.946;10.558;2023-08-24T09:03:43;25.00;99.90
3190;DHT22;1606;51.946;10.558;2023-08-24T09:06:11;25.00;99.90
3190;DHT22;1606;51.946;10.558;2023-08-24T09:08:39;25.10;99.90
3190;DHT22;1606;51.946;10.558;2023-08-24T09:11:08;25.30;99.90
3190;DHT22;1606;51.946;10.558;2023-08-24T09:13:36;25.40;99.90
3190;DHT22;1606;51.946;10.558;2023-08-24T09:16:06;25.50;99.90
3190;DHT22;1606;51.946;10.558;2023-08-24T09:18:36;25.70;99.90
3190;DHT22;1606;51.946;10.558;2023-08-24T09:21:08;25.70;99.90
3190;DHT22;1606;51.946;10.558;2023-08-24T09:23:38;25.70;99.90
3190;DHT22;1606;51.946;10.558;2023-08-24T09:26:06;25.70;99.90
3190;DHT22;1606;51.946;10.558;2023-08-24T09:28:35;25.80;99.90
3190;DHT22;1606;51.946;10.558;2023-08-24T09:31:05;25.80;99.90
3190;DHT22;1606;51.946;10.558;2023-08-24T09:33:33;26.00;99.90
3190;DHT22;1606;51.946;10.558;2023-08-24T09:36:06;26.00;99.90
3190;DHT22;1606;51.946;10.558;2023-08-24T09:38:34;25.90;99.90
3190;DHT22;1606;51.946;10.558;2023-08-24T09:41:03;25.80;99.90
3190;DHT22;1606;51.946;10.558;2023-08-24T09:43:31;25.80;99.90
3190;DHT22;1606;51.946;10.558;2023-08-24T09:46:00;25.80;99.90
3190;DHT22;1606;51.946;10.558;2023-08-24T09:48:30;25.70;99.90
3190;DHT22;1606;51.946;10.558;2023-08-24T09:51:04;25.90;99.90
3190;DHT22;1606;51.946;10.558;2023-08-24T09:53:33;26.20;99.90
3190;DHT22;1606;51.946;10.558;2023-08-24T09:56:05;26.10;99.90
3190;DHT22;1606;51.946;10.558;2023-08-24T09:58:34;26.00;99.90
3190;DHT22;1606;51.946;10.558;2023-08-24T10:01:03;26.10;99.90
3190;DHT22;1606;51.946;10.558;2023-08-24T10:03:33;26.00;99.90
3190;DHT22;1606;51.946;10.558;2023-08-24T10:06:04;26.10;99.90
3190;DHT22;1606;51.946;10.558;2023-08-24T10:08:36;26.30;99.90
3190;DHT22;1606;51.946;10.558;2023-08-24T10:11:06;26.20;99.90
3190;DHT22;1606;51.946;10.558;2023-08-24T10:13:39;25.90;99.90
3190;DHT22;1606;51.946;10.558;2023-08-24T10:16:12;26.00;99.90
3190;DHT22;1606;51.946;10.558;2023-08-24T10:18:41;26.10;99.90
3190;DHT22;1606;51.946;10.558;2023-08-24T10:21:09;26.30;99.90
3190;DHT22;1606;51.946;10.558;2023-08-24T10:23:37;26.30;99.90
3190;DHT22;1606;51.946;10.558;2023-08-24T10:26:07;26.20;99.90
3190;DHT22;1606;51.946;10.558;2023-08-24T10:28:36;26.40;99.90
3190;DHT22;1606;51.946;10.558;2023-08-24T10:31:04;26.60;99.90
3190;DHT22;1606;51.946;10.558;2023-08-24T10:33:34;26.80;99.90
3190;DHT22;1606;51.946;10.558;2023-08-24T10:36:05;26.80;99.90
3190;DHT22;1606;51.946;10.558;2023-08-24T10:38:35;26.90;99.90
3190;DHT22;1606;51.946;10.558;2023-08-24T10:41:07;27.00;99.90
3190;DHT22;1606;51.946;10.558;2023-08-24T10:43:35;27.20;99.90
3190;DHT22;1606;51.946;10.558;2023-08-24T10:46:11;27.30;99.90
3190;DHT22;1606;51.946;10.558;2023-08-24T10:48:59;27.50;99.90
3190;DHT22;1606;51.946;10.558;2023-08-24T10:51:27;27.70;99.90
3190;DHT22;1606;51.946;10.558;2023-08-24T10:53:58;27.80;99.90
3190;DHT22;1606;51.946;10.558;2023-08-24T10:56:35;27.80;99.90
3190;DHT22;1606;51.946;10.558;2023-08-24T10:59:14;28.10;99.90
3190;DHT22;1606;51.946;10.558;2023-08-24T11:01:54;28.70;97.50
3190;DHT22;1606;51.946;10.558;2023-08-24T11:04:24;28.90;97.70
3190;DHT22;1606;51.946;10.558;2023-08-24T11:06:53;29.20;97.90
3190;DHT22;1606;51.946;10.558;2023-08-24T11:09:22;29.50;96.40
3190;DHT22;1606;51.946;10.558;2023-08-24T11:11:59;29.60;96.80
3190;DHT22;1606;51.946;10.558;2023-08-24T11:14:28;29.80;95.90
3190;DHT22;1606;51.946;10.558;2023-08-24T11:16:58;29.90;95.00
3190;DHT22;1606;51.946;10.558;2023-08-24T11:19:28;30.10;94.40
3190;DHT22;1606;51.946;10.558;2023-08-24T11:21:57;30.40;92.90
3190;DHT22;1606;51.946;10.558;2023-08-24T11:24:25;30.40;91.30
3190;DHT22;1606;51.946;10.558;2023-08-24T11:26:54;30.20;93.40
3190;DHT22;1606;51.946;10.558;2023-08-24T11:29:21;30.00;96.10
3190;DHT22;1606;51.946;10.558;2023-08-24T11:31:51;30.00;93.70
3190;DHT22;1606;51.946;10.558;2023-08-24T11:34:19;30.00;95.20
3190;DHT22;1606;51.946;10.558;2023-08-24T11:36:49;30.10;94.90
3190;DHT22;1606;51.946;10.558;2023-08-24T11:39:18;30.10;96.20
3190;DHT22;1606;51.946;10.558;2023-08-24T11:41:57;30.00;94.60
3190;DHT22;1606;51.946;10.558;2023-08-24T11:44:25;30.00;93.40
3190;DHT22;1606;51.946;10.558;2023-08-24T11:46:56;30.30;93.20
3190;DHT22;1606;51.946;10.558;2023-08-24T11:49:25;30.40;91.60
3190;DHT22;1606;51.946;10.558;2023-08-24T11:51:55;30.50;91.50
3190;DHT22;1606;51.946;10.558;2023-08-24T11:54:23;30.70;92.80
3190;DHT22;1606;51.946;10.558;2023-08-24T11:56:51;31.00;91.80
3190;DHT22;1606;51.946;10.558;2023-08-24T11:59:20;31.00;92.80
3190;DHT22;1606;51.946;10.558;2023-08-24T12:01:48;30.80;92.40
3190;DHT22;1606;51.946;10.558;2023-08-24T12:04:16;30.50;93.50
3190;DHT22;1606;51.946;10.558;2023-08-24T12:06:44;30.80;93.10
3190;DHT22;1606;51.946;10.558;2023-08-24T12:09:13;31.20;91.50
3190;DHT22;1606;51.946;10.558;2023-08-24T12:11:42;31.20;90.70
3190;DHT22;1606;51.946;10.558;2023-08-24T12:14:17;31.20;92.40
3190;DHT22;1606;51.946;10.558;2023-08-24T12:16:45;31.30;93.10
3190;DHT22;1606;51.946;10.558;2023-08-24T12:19:13;31.60;90.40
3190;DHT22;1606;51.946;10.558;2023-08-24T12:21:43;31.70;91.40
3190;DHT22;1606;51.946;10.558;2023-08-24T12:24:15;31.60;90.90
3190;DHT22;1606;51.946;10.558;2023-08-24T12:26:43;31.20;92.60
3190;DHT22;1606;51.946;10.558;2023-08-24T12:29:11;31.00;90.80
3190;DHT22;1606;51.946;10.558;2023-08-24T12:31:42;31.00;91.30
3190;DHT22;1606;51.946;10.558;2023-08-24T12:34:14;31.30;91.30
3190;DHT22;1606;51.946;10.558;2023-08-24T12:36:42;31.80;90.50
3190;DHT22;1606;51.946;10.558;2023-08-24T12:39:11;32.00;88.00
3190;DHT22;1606;51.946;10.558;2023-08-24T12:41:41;32.10;90.90
3190;DHT22;1606;51.946;10.558;2023-08-24T12:44:09;31.90;90.10
3190;DHT22;1606;51.946;10.558;2023-08-24T12:46:41;32.00;87.80
3190;DHT22;1606;51.946;10.558;2023-08-24T12:49:09;32.00;88.80
3190;DHT22;1606;51.946;10.558;2023-08-24T12:51:37;32.20;87.50
3190;DHT22;1606;51.946;10.558;2023-08-24T12:54:06;32.50;87.30
3190;DHT22;1606;51.946;10.558;2023-08-24T12:56:38;32.70;84.90
3190;DHT22;1606;51.946;10.558;2023-08-24T12:59:07;32.70;83.00
3190;DHT22;1606;51.946;10.558;2023-08-24T13:01:35;32.70;83.80
3190;DHT22;1606;51.946;10.558;2023-08-24T13:04:04;32.60;82.80
3190;DHT22;1606;51.946;10.558;2023-08-24T13:06:32;32.70;83.30
3190;DHT22;1606;51.946;10.558;2023-08-24T13:09:00;32.50;87.10
3190;DHT22;1606;51.946;10.558;2023-08-24T13:11:30;32.30;85.40
3190;DHT22;1606;51.946;10.558;2023-08-24T13:13:57;32.30;85.60
3190;DHT22;1606;51.946;10.558;2023-08-24T13:16:27;32.30;87.70
3190;DHT22;1606;51.946;10.558;2023-08-24T13:18:55;32.20;85.70
3190;DHT22;1606;51.946;10.558;2023-08-24T13:21:25;32.00;87.90
3190;DHT22;1606;51.946;10.558;2023-08-24T13:23:53;32.20;87.20
3190;DHT22;1606;51.946;10.558;2023-08-24T13:26:21;32.20;88.60
3190;DHT22;1606;51.946;10.558;2023-08-24T13:28:50;32.20;87.60
3190;DHT22;1606;51.946;10.558;2023-08-24T13:31:18;32.20;86.60
3190;DHT22;1606;51.946;10.558;2023-08-24T13:33:49;32.50;84.70
3190;DHT22;1606;51.946;10.558;2023-08-24T13:36:17;32.70;81.70
3190;DHT22;1606;51.946;10.558;2023-08-24T13:38:45;32.60;82.90
3190;DHT22;1606;51.946;10.558;2023-08-24T13:41:14;32.70;80.80
3190;DHT22;1606;51.946;10.558;2023-08-24T13:43:41;32.60;80.30
3190;DHT22;1606;51.946;10.558;2023-08-24T13:46:09;32.70;81.80
3190;DHT22;1606;51.946;10.558;2023-08-24T13:48:38;32.70;83.30
3190;DHT22;1606;51.946;10.558;2023-08-24T13:51:07;32.30;82.00
3190;DHT22;1606;51.946;10.558;2023-08-24T13:53:35;32.20;84.50
3190;DHT22;1606;51.946;10.558;2023-08-24T13:56:04;32.30;84.60
3190;DHT22;1606;51.946;10.558;2023-08-24T13:58:32;32.40;83.80
3190;DHT22;1606;51.946;10.558;2023-08-24T14:01:00;32.40;81.50
3190;DHT22;1606;51.946;10.558;2023-08-24T14:03:29;32.30;83.20
3190;DHT22;1606;51.946;10.558;2023-08-24T14:05:58;32.40;82.10
3190;DHT22;1606;51.946;10.558;2023-08-24T14:08:27;32.60;84.50
3190;DHT22;1606;51.946;10.558;2023-08-24T14:10:55;32.60;84.10
3190;DHT22;1606;51.946;10.558;2023-08-24T14:13:23;32.60;85.20
3190;DHT22;1606;51.946;10.558;2023-08-24T14:15:51;32.70;87.20
3190;DHT22;1606;51.946;10.558;2023-08-24T14:18:19;32.70;84.20
3190;DHT22;1606;51.946;10.558;2023-08-24T14:20:47;32.60;84.00
3190;DHT22;1606;51.946;10.558;2023-08-24T14:23:15;32.40;84.10
3190;DHT22;1606;51.946;10.558;2023-08-24T14:25:48;32.00;83.80
3190;DHT22;1606;51.946;10.558;2023-08-24T14:28:20;32.00;84.40
3190;DHT22;1606;51.946;10.558;2023-08-24T14:30:49;32.00;85.40
3190;DHT22;1606;51.946;10.558;2023-08-24T14:33:17;32.10;84.10
3190;DHT22;1606;51.946;10.558;2023-08-24T14:35:51;32.00;86.20
3190;DHT22;1606;51.946;10.558;2023-08-24T14:38:19;32.10;85.10
3190;DHT22;1606;51.946;10.558;2023-08-24T14:40:49;32.00;88.00
3190;DHT22;1606;51.946;10.558;2023-08-24T14:43:16;31.90;87.60
3190;DHT22;1606;51.946;10.558;2023-08-24T14:45:44;31.80;83.90
3190;DHT22;1606;51.946;10.558;2023-08-24T14:48:13;31.80;85.80
3190;DHT22;1606;51.946;10.558;2023-08-24T14:50:41;31.70;86.80
3190;DHT22;1606;51.946;10.558;2023-08-24T14:53:09;31.60;87.10
3190;DHT22;1606;51.946;10.558;2023-08-24T14:55:37;31.70;86.90
3190;DHT22;1606;51.946;10.558;2023-08-24T14:58:07;31.70;85.30
3190;DHT22;1606;51.946;10.558;2023-08-24T15:00:35;31.80;86.70
3190;DHT22;1606;51.946;10.558;2023-08-24T15:03:03;31.70;86.20
3190;DHT22;1606;51.946;10.558;2023-08-24T15:05:37;31.70;88.20
3190;DHT22;1606;51.946;10.558;2023-08-24T15:08:05;31.60;87.40
3190;DHT22;1606;51.946;10.558;2023-08-24T15:10:33;31.30;87.60
3190;DHT22;1606;51.946;10.558;2023-08-24T15:13:01;31.30;89.40
3190;DHT22;1606;51.946;10.558;2023-08-24T15:15:30;31.20;89.30
3190;DHT22;1606;51.946;10.558;2023-08-24T15:17:59;31.40;90.10
3190;DHT22;1606;51.946;10.558;2023-08-24T15:20:27;31.50;89.40
3190;DHT22;1606;51.946;10.558;2023-08-24T15:22:55;31.70;88.70
3190;DHT22;1606;51.946;10.558;2023-08-24T15:25:23;31.80;87.30
3190;DHT22;1606;51.946;10.558;2023-08-24T15:27:51;31.70;90.50
3190;DHT22;1606;51.946;10.558;2023-08-24T15:30:19;31.70;92.30
3190;DHT22;1606;51.946;10.558;2023-08-24T15:32:49;31.60;92.20
3190;DHT22;1606;51.946;10.558;2023-08-24T15:35:17;31.30;91.00
3190;DHT22;1606;51.946;10.558;2023-08-24T15:37:45;31.10;92.30
3190;DHT22;1606;51.946;10.558;2023-08-24T15:40:13;31.00;91.20
3190;DHT22;1606;51.946;10.558;2023-08-24T15:42:41;31.00;92.90
3190;DHT22;1606;51.946;10.558;2023-08-24T15:45:09;31.10;90.90
3190;DHT22;1606;51.946;10.558;2023-08-24T15:47:37;31.10;90.20
3190;DHT22;1606;51.946;10.558;2023-08-24T15:50:07;31.10;91.10
3190;DHT22;1606;51.946;10.558;2023-08-24T15:52:35;30.90;89.40
3190;DHT22;1606;51.946;10.558;2023-08-24T15:55:03;30.80;90.60